Time;durP1;ratioP1;P1;durP2;ratioP2;P2;SDS_P1;SDS_P2;PMS_P1;PMS_P2;Temp;Humidity;BMP_temperature;BMP_pressure;BME280_temperature;BME280_humidity;BME280_pressure;Samples;Min_cycle;Max_cycle;Signal;HPM_P1;HPM_P2
2021/09/26 00:04:43;;;;;;;25.50;18.30;;;;;;;18.26;66.53;99374.79;235957;1195;139784;-63
2021/09/26 00:09:46;;;;;;;25.40;16.50;;;;;;;18.17;66.50;99373.05;235888;1195;138922;-60
2021/09/26 00:14:49;;;;;;;24.10;17.20;;;;;;;18.14;66.76;99375.27;235655;1195;139904;-61
2021/09/26 00:19:52;;;;;;;24.50;18.20;;;;;;;18.14;66.84;99376.20;236431;1195;140581;-60
2021/09/26 00:24:55;;;;;;;28.00;17.60;;;;;;;18.11;67.03;99379.48;235627;1195;139249;-59
2021/09/26 00:29:59;;;;;;;24.70;17.60;;;;;;;18.12;67.15;99380.48;235891;1195;138867;-58
2021/09/26 00:35:03;;;;;;;23.70;17.60;;;;;;;18.08;67.13;99377.63;235996;1195;139601;-62
2021/09/26 00:40:08;;;;;;;23.50;16.10;;;;;;;18.04;67.24;99370.64;236069;1195;139287;-64
2021/09/26 00:45:12;;;;;;;24.70;17.30;;;;;;;18.01;67.31;99374.81;235655;1195;139889;-62
2021/09/26 00:50:16;;;;;;;24.90;17.90;;;;;;;18.00;67.38;99378.32;236022;1195;139325;-60
2021/09/26 00:55:19;;;;;;;27.90;18.80;;;;;;;18.01;67.50;99376.11;236080;1195;141063;-60
2021/09/26 01:00:23;;;;;;;28.00;18.50;;;;;;;18.02;67.69;99376.02;235558;1195;139705;-59
2021/09/26 01:05:27;;;;;;;24.60;17.00;;;;;;;17.99;67.71;99371.58;235961;1195;139360;-58
2021/09/26 01:10:43;;;;;;;24.70;18.20;;;;;;;17.99;67.74;99372.23;235762;1195;139380;-58
2021/09/26 01:16:24;;;;;;;30.70;21.40;;;;;;;17.98;67.69;99369.48;235974;1195;139263;-58
2021/09/26 01:21:42;;;;;;;29.20;21.80;;;;;;;18.00;67.85;99372.56;235047;1196;138717;-61
2021/09/26 01:27:22;;;;;;;31.50;22.30;;;;;;;17.97;67.83;99376.44;236258;1195;139415;-60
2021/09/26 01:32:29;;;;;;;30.20;20.80;;;;;;;17.92;67.81;99380.41;236326;1195;139337;-59
2021/09/26 01:37:40;;;;;;;27.00;20.70;;;;;;;17.90;67.94;99376.86;236095;1195;139989;-58
2021/09/26 01:42:48;;;;;;;29.50;21.70;;;;;;;17.86;67.88;99375.37;236268;1195;139309;-57
2021/09/26 01:47:57;;;;;;;31.50;20.60;;;;;;;17.84;68.04;99379.56;236298;1189;138994;-60
2021/09/26 01:53:01;;;;;;;26.60;19.30;;;;;;;17.81;68.07;99382.64;235460;1195;140713;-60
2021/09/26 01:58:04;;;;;;;28.70;19.70;;;;;;;17.78;68.15;99375.16;235962;1195;139644;-60
2021/09/26 02:03:08;;;;;;;27.00;20.10;;;;;;;17.81;68.31;99380.17;236272;1195;139698;-60
2021/09/26 02:08:12;;;;;;;28.00;20.00;;;;;;;17.83;68.44;99377.30;236086;1195;139662;-60
2021/09/26 02:13:16;;;;;;;28.80;21.10;;;;;;;17.84;68.37;99378.44;235922;1195;139740;-63
2021/09/26 02:18:19;;;;;;;27.60;18.50;;;;;;;17.82;68.49;99384.05;235776;1195;138802;-61
2021/09/26 02:23:25;;;;;;;25.30;18.40;;;;;;;17.78;68.43;99382.33;236150;1195;139787;-59
2021/09/26 02:28:30;;;;;;;29.40;20.30;;;;;;;17.78;68.41;99385.96;236414;1195;139773;-60
2021/09/26 02:33:35;;;;;;;28.90;19.60;;;;;;;17.77;68.58;99391.78;235900;1195;139099;-62
2021/09/26 02:38:39;;;;;;;26.90;20.10;;;;;;;17.73;68.25;99391.93;235768;1195;139052;-60
2021/09/26 02:43:52;;;;;;;30.80;17.80;;;;;;;17.67;68.37;99389.41;236236;1195;139268;-62
2021/09/26 02:48:56;;;;;;;23.20;17.30;;;;;;;17.65;68.32;99396.23;236063;1195;139185;-65
2021/09/26 02:54:01;;;;;;;26.50;17.30;;;;;;;17.61;68.46;99396.86;235942;1195;139328;-62
2021/09/26 02:59:04;;;;;;;26.10;18.40;;;;;;;17.57;68.49;99398.55;235968;1189;140864;-60
2021/09/26 03:04:07;;;;;;;33.90;19.10;;;;;;;17.47;68.17;99399.35;236097;1195;140068;-61
2021/09/26 03:09:10;;;;;;;24.90;16.90;;;;;;;17.37;68.16;99403.66;235985;1195;138621;-61
2021/09/26 03:14:14;;;;;;;23.90;17.50;;;;;;;17.26;68.13;99411.20;236168;1195;139802;-63
2021/09/26 03:19:17;;;;;;;23.10;17.60;;;;;;;17.18;68.23;99415.42;236173;1195;140238;-61
2021/09/26 03:24:20;;;;;;;25.60;17.90;;;;;;;17.08;68.23;99418.45;236072;1195;152492;-61
2021/09/26 03:29:23;;;;;;;26.20;18.70;;;;;;;16.97;68.42;99415.36;235857;1195;138997;-61
2021/09/26 03:34:26;;;;;;;23.50;17.30;;;;;;;16.87;68.27;99414.02;236186;1195;138708;-60
2021/09/26 03:39:30;;;;;;;23.00;17.80;;;;;;;16.83;68.36;99410.28;235921;1195;139989;-59
2021/09/26 03:44:33;;;;;;;24.90;17.50;;;;;;;16.74;68.39;99408.47;236021;1195;140371;-60
2021/09/26 03:49:37;;;;;;;27.90;19.40;;;;;;;16.69;68.40;99411.57;235914;1195;138811;-61
2021/09/26 03:54:40;;;;;;;26.10;18.70;;;;;;;16.61;68.46;99420.46;236302;1194;138986;-65
2021/09/26 03:59:43;;;;;;;23.70;17.60;;;;;;;16.52;68.59;99420.80;235689;1195;138713;-59
2021/09/26 04:04:46;;;;;;;23.50;17.70;;;;;;;16.51;68.86;99422.48;236014;1195;139544;-63
2021/09/26 04:09:49;;;;;;;28.70;18.60;;;;;;;16.54;68.92;99420.06;236332;1195;139719;-59
2021/09/26 04:14:52;;;;;;;27.40;18.30;;;;;;;16.52;68.89;99424.72;236270;1195;139028;-59
2021/09/26 04:19:56;;;;;;;24.80;17.90;;;;;;;16.48;68.95;99426.85;235954;1195;140116;-59
2021/09/26 04:24:59;;;;;;;25.80;17.00;;;;;;;16.41;68.87;99428.86;236127;1195;139236;-61
2021/09/26 04:30:04;;;;;;;20.30;15.10;;;;;;;16.36;69.18;99426.36;235800;1195;139826;-63
2021/09/26 04:35:07;;;;;;;;;;;;;;;16.36;69.40;99423.31;236083;1195;139370;-58
2021/09/26 04:40:12;;;;;;;21.80;16.00;;;;;;;16.36;69.30;99421.23;235968;1195;124703;-60
2021/09/26 04:45:15;;;;;;;23.30;17.70;;;;;;;16.36;69.52;99427.48;235437;1195;139485;-60
2021/09/26 04:50:19;;;;;;;21.30;15.90;;;;;;;16.32;69.53;99433.45;235402;1195;139340;-59
2021/09/26 04:55:26;;;;;;;21.00;15.50;;;;;;;16.32;69.61;99432.92;236178;1195;140140;-61
2021/09/26 05:00:30;;;;;;;22.50;17.00;;;;;;;16.35;69.78;99437.23;235979;1195;139262;-59
2021/09/26 05:05:34;;;;;;;24.10;16.80;;;;;;;16.35;69.63;99443.30;235862;1195;139158;-59
2021/09/26 05:10:37;;;;;;;20.90;16.30;;;;;;;16.35;69.78;99444.74;235650;1196;139294;-58
2021/09/26 05:15:41;;;;;;;21.90;14.50;;;;;;;16.34;69.79;99446.07;235737;1195;139302;-61
2021/09/26 05:20:45;;;;;;;17.00;13.30;;;;;;;16.35;70.05;99445.30;235702;1195;139665;-60
2021/09/26 05:25:50;;;;;;;19.70;15.10;;;;;;;16.39;70.06;99444.42;235681;1195;140769;-60
2021/09/26 05:30:53;;;;;;;23.80;15.40;;;;;;;16.50;70.31;99456.80;235902;1195;138787;-56
2021/09/26 05:35:57;;;;;;;21.80;15.40;;;;;;;16.56;70.36;99452.20;235997;1194;138826;-60
2021/09/26 05:41:00;;;;;;;19.30;15.10;;;;;;;16.58;70.24;99450.79;236098;1188;139917;-59
2021/09/26 05:46:03;;;;;;;19.20;14.40;;;;;;;16.61;70.20;99454.81;236044;1195;139778;-58
2021/09/26 05:51:07;;;;;;;21.60;15.20;;;;;;;16.65;70.26;99455.40;235805;1195;140508;-59
2021/09/26 05:56:10;;;;;;;19.20;15.30;;;;;;;16.74;70.29;99464.48;236196;1195;141347;-61
2021/09/26 06:01:13;;;;;;;22.40;15.10;;;;;;;16.78;70.17;99462.05;236216;1195;139454;-61
2021/09/26 06:06:17;;;;;;;20.90;15.30;;;;;;;16.85;70.49;99464.42;236013;1195;139033;-62
2021/09/26 06:11:20;;;;;;;17.80;14.80;;;;;;;16.90;70.27;99461.88;235758;1195;140132;-62
2021/09/26 06:16:24;;;;;;;20.20;15.50;;;;;;;17.00;70.56;99466.20;236279;1195;139192;-62
2021/09/26 06:21:27;;;;;;;24.00;16.50;;;;;;;17.12;70.69;99463.95;236107;1195;138968;-66
2021/09/26 06:26:32;;;;;;;23.90;17.20;;;;;;;17.21;70.64;99470.17;235767;1195;139308;-61
2021/09/26 06:31:36;;;;;;;23.10;15.80;;;;;;;17.26;70.50;99472.15;234869;1196;138739;-61
2021/09/26 06:36:40;;;;;;;20.20;15.40;;;;;;;17.32;70.23;99476.38;236227;1195;139598;-60
2021/09/26 06:41:43;;;;;;;23.60;17.00;;;;;;;17.37;70.35;99476.22;236364;1195;139168;-62
2021/09/26 06:46:46;;;;;;;24.80;18.00;;;;;;;17.47;70.34;99474.73;236264;1194;138773;-65
2021/09/26 06:51:49;;;;;;;26.50;19.00;;;;;;;17.55;70.31;99481.79;236262;1194;140284;-61
2021/09/26 06:56:52;;;;;;;21.30;17.20;;;;;;;17.62;70.20;99488.70;236059;1195;139077;-60
2021/09/26 07:01:55;;;;;;;535.70;448.80;;;;;;;17.71;70.38;99495.98;236280;1194;140689;-60
2021/09/26 07:06:59;;;;;;;29.90;21.80;;;;;;;17.89;70.64;99502.91;236080;1195;139348;-60
2021/09/26 07:12:02;;;;;;;25.40;20.40;;;;;;;18.11;70.69;99499.29;236300;1194;138948;-60
2021/09/26 07:17:05;;;;;;;25.80;19.50;;;;;;;18.28;70.43;99503.92;235924;1195;139354;-64
2021/09/26 07:22:11;;;;;;;238.40;162.60;;;;;;;18.36;70.20;99504.79;235932;1196;138738;-62
2021/09/26 07:27:15;;;;;;;30.80;22.90;;;;;;;18.51;70.00;99506.41;236025;1195;140353;-68
2021/09/26 07:32:18;;;;;;;26.50;21.20;;;;;;;18.67;70.12;99514.04;235954;1195;138988;-62
2021/09/26 07:37:22;;;;;;;28.90;21.00;;;;;;;18.76;69.76;99515.20;236193;1195;139512;-61
2021/09/26 07:42:25;;;;;;;27.90;19.80;;;;;;;18.85;69.78;99518.73;235968;1195;138931;-67
2021/09/26 07:47:29;;;;;;;26.40;18.80;;;;;;;18.97;69.74;99529.39;235849;1194;139442;-62
2021/09/26 07:52:32;;;;;;;41.90;29.50;;;;;;;19.07;69.75;99531.16;236308;1195;140245;-60
2021/09/26 07:57:36;;;;;;;37.50;26.90;;;;;;;19.20;69.75;99531.23;236018;1195;139829;-60
2021/09/26 08:02:40;;;;;;;38.90;28.00;;;;;;;19.39;70.24;99534.56;235715;1194;139523;-60
2021/09/26 08:07:44;;;;;;;40.00;27.90;;;;;;;19.61;70.55;99530.80;235995;1195;141197;-60
2021/09/26 08:12:50;;;;;;;37.50;25.80;;;;;;;19.87;71.00;99525.12;235294;1196;138910;-66
2021/09/26 08:17:56;;;;;;;34.60;23.10;;;;;;;20.16;71.05;99520.86;236003;1194;139268;-66
2021/09/26 08:23:00;;;;;;;37.50;27.80;;;;;;;20.39;70.77;99520.58;235970;1196;139525;-62
2021/09/26 08:28:03;;;;;;;34.10;22.00;;;;;;;20.54;69.89;99517.39;236125;1195;138910;-63
2021/09/26 08:33:06;;;;;;;22.30;15.90;;;;;;;20.55;69.41;99517.10;235785;1195;139280;-59
2021/09/26 08:38:09;;;;;;;71.60;49.10;;;;;;;20.58;69.26;99516.63;235659;1195;138793;-59
2021/09/26 08:43:18;;;;;;;42.10;29.80;;;;;;;20.67;69.32;99516.92;235553;1196;141508;-57
2021/09/26 08:48:21;;;;;;;28.30;19.80;;;;;;;20.77;69.32;99514.97;235777;1195;139572;-61
2021/09/26 08:53:25;;;;;;;12.50;8.40;;;;;;;20.89;69.06;99509.48;235967;1195;138926;-63
2021/09/26 08:58:28;;;;;;;12.60;7.70;;;;;;;20.93;68.42;99508.05;236074;1195;139320;-60
2021/09/26 09:03:31;;;;;;;341.80;259.70;;;;;;;20.91;67.71;99510.45;236170;1195;141173;-64
2021/09/26 09:08:38;;;;;;;52.50;38.90;;;;;;;20.86;67.30;99511.98;235338;1195;140034;-60
2021/09/26 09:13:43;;;;;;;21.40;16.00;;;;;;;20.80;67.05;99511.99;235924;1195;139158;-61
2021/09/26 09:18:51;;;;;;;16.40;12.10;;;;;;;20.78;67.12;99506.83;235987;1195;138931;-63
2021/09/26 09:24:27;;;;;;;13.10;10.20;;;;;;;20.77;67.09;99512.13;236079;1195;139038;-60
2021/09/26 09:29:30;;;;;;;14.10;10.30;;;;;;;20.82;66.90;99512.76;235916;1195;138597;-60
2021/09/26 09:34:40;;;;;;;12.90;9.90;;;;;;;20.84;66.85;99502.85;236340;1194;139018;-61
2021/09/26 09:40:09;;;;;;;11.70;6.40;;;;;;;20.87;66.57;99502.82;235362;1195;138783;-60
2021/09/26 09:45:23;;;;;;;25.10;16.40;;;;;;;20.91;66.23;99502.41;236191;1195;139570;-61
2021/09/26 09:50:39;;;;;;;21.50;14.10;;;;;;;20.97;66.21;99501.66;235725;1195;138883;-61
2021/09/26 09:55:44;;;;;;;15.20;12.20;;;;;;;21.00;66.04;99499.42;236031;1195;138786;-62
2021/09/26 10:00:54;;;;;;;299.70;227.10;;;;;;;21.04;66.02;99496.11;236056;1195;139647;-63
2021/09/26 10:05:59;;;;;;;33.50;25.90;;;;;;;21.08;65.85;99495.08;236234;1195;140358;-62
2021/09/26 10:11:06;;;;;;;14.30;8.90;;;;;;;21.10;65.75;99494.14;236057;1195;138619;-61
2021/09/26 10:16:11;;;;;;;19.20;14.00;;;;;;;21.14;65.49;99494.39;236336;1195;139294;-66
2021/09/26 10:21:14;;;;;;;12.40;9.70;;;;;;;21.24;65.48;99490.72;236259;1195;139867;-62
2021/09/26 10:26:20;;;;;;;85.60;24.50;;;;;;;21.36;65.36;99491.52;236092;1195;140890;-60
2021/09/26 10:31:28;;;;;;;19.60;9.40;;;;;;;21.46;65.22;99490.17;235786;1195;139475;-61
2021/09/26 10:36:34;;;;;;;25.40;11.70;;;;;;;21.52;64.95;99487.41;235739;1195;138672;-62
2021/09/26 10:42:06;;;;;;;23.80;15.30;;;;;;;21.58;64.78;99486.86;235978;1195;139198;-64
2021/09/26 10:47:17;;;;;;;10.50;7.90;;;;;;;21.55;64.48;99483.99;236103;1196;138770;-60
2021/09/26 10:52:22;;;;;;;8.70;5.60;;;;;;;21.53;64.30;99486.41;236232;1195;139340;-62
2021/09/26 10:57:27;;;;;;;9.80;5.50;;;;;;;21.57;64.19;99478.96;236268;1195;138698;-62
2021/09/26 11:02:30;;;;;;;7.80;6.00;;;;;;;21.61;63.96;99473.49;235975;1195;138972;-64
2021/09/26 11:07:46;;;;;;;6.60;5.50;;;;;;;21.60;63.75;99473.22;236224;1195;139325;-63
2021/09/26 11:12:50;;;;;;;6.40;5.20;;;;;;;21.59;63.68;99469.34;236080;1195;138642;-62
2021/09/26 11:17:56;;;;;;;9.50;7.00;;;;;;;21.59;63.56;99465.06;235710;1195;139095;-63
2021/09/26 11:23:05;;;;;;;6.00;5.30;;;;;;;21.60;63.57;99463.19;236176;1195;138427;-62
2021/09/26 11:28:26;;;;;;;7.00;5.60;;;;;;;21.62;63.43;99467.77;236353;1195;138561;-63
2021/09/26 11:33:55;;;;;;;7.10;5.60;;;;;;;21.67;63.38;99459.54;236139;1194;138645;-64
2021/09/26 11:39:25;;;;;;;8.30;6.00;;;;;;;21.75;63.24;99457.61;236120;1195;138928;-62
2021/09/26 11:44:28;;;;;;;7.60;5.50;;;;;;;21.89;63.21;99451.44;236261;1194;138955;-62
2021/09/26 11:49:31;;;;;;;8.40;6.20;;;;;;;22.05;62.96;99443.59;236191;1195;139378;-65
2021/09/26 11:54:35;;;;;;;7.40;5.90;;;;;;;22.18;62.80;99439.13;236216;1195;138454;-62
2021/09/26 11:59:42;;;;;;;7.00;6.00;;;;;;;22.39;62.68;99432.08;236038;1195;138537;-62
2021/09/26 12:04:45;;;;;;;10.70;6.40;;;;;;;22.52;62.50;99425.84;235923;1195;140352;-62
2021/09/26 12:09:50;;;;;;;6.80;5.70;;;;;;;22.65;62.34;99430.16;235972;1195;138720;-64
2021/09/26 12:15:05;;;;;;;23.50;20.60;;;;;;;22.71;61.83;99429.83;235790;1195;139808;-61
2021/09/26 12:20:12;;;;;;;8.40;6.60;;;;;;;22.75;61.62;99427.39;236124;1194;139831;-64
2021/09/26 12:25:39;;;;;;;7.20;6.30;;;;;;;22.71;61.25;99425.28;235873;1195;138509;-63
2021/09/26 12:30:49;;;;;;;8.50;6.90;;;;;;;22.65;61.21;99414.13;235773;1195;138514;-63
2021/09/26 12:35:56;;;;;;;9.00;6.90;;;;;;;22.62;61.06;99414.83;235909;1194;139322;-64
2021/09/26 12:41:04;;;;;;;7.60;6.10;;;;;;;22.54;60.89;99408.77;236204;1195;139001;-62
2021/09/26 12:46:08;;;;;;;8.80;6.50;;;;;;;22.42;60.74;99407.14;236370;1195;139142;-63
2021/09/26 12:51:21;;;;;;;11.20;6.50;;;;;;;22.38;60.81;99409.52;235954;1195;138910;-64
2021/09/26 12:56:26;;;;;;;10.20;6.30;;;;;;;22.42;60.95;99405.59;235576;1196;139440;-65
2021/09/26 13:01:32;;;;;;;29.60;20.20;;;;;;;22.52;61.20;99405.59;235706;1195;138919;-64
2021/09/26 13:06:49;;;;;;;20.00;9.70;;;;;;;22.69;61.29;99402.86;236053;1195;139654;-64
2021/09/26 13:11:53;;;;;;;13.90;6.60;;;;;;;22.78;61.17;99408.88;235999;1195;139629;-65
2021/09/26 13:16:56;;;;;;;23.30;9.50;;;;;;;22.91;61.30;99405.04;235873;1195;139042;-64
2021/09/26 13:22:06;;;;;;;128.20;102.90;;;;;;;22.97;61.12;99400.30;235877;1195;138687;-63
2021/09/26 13:27:14;;;;;;;49.80;32.40;;;;;;;23.21;61.31;99400.48;235973;1195;139600;-68
2021/09/26 13:32:37;;;;;;;12.20;9.30;;;;;;;23.56;61.09;99395.18;235705;1196;139073;-66
2021/09/26 13:37:41;;;;;;;11.90;7.70;;;;;;;23.71;60.48;99394.48;235795;1195;140189;-64
2021/09/26 13:42:57;;;;;;;15.80;7.90;;;;;;;23.58;59.90;99391.98;235604;1195;139042;-66
2021/09/26 13:48:03;;;;;;;12.20;6.30;;;;;;;23.37;59.63;99393.55;235867;1195;138973;-64
2021/09/26 13:53:17;;;;;;;8.40;5.50;;;;;;;23.17;59.50;99392.33;236246;1195;138351;-67
2021/09/26 13:58:21;;;;;;;7.10;5.40;;;;;;;22.97;59.51;99383.43;236112;1195;138786;-65
2021/09/26 14:03:24;;;;;;;8.70;5.60;;;;;;;22.78;59.42;99386.36;236018;1195;139064;-66
2021/09/26 14:08:29;;;;;;;66.70;53.90;;;;;;;22.61;59.54;99383.02;234891;1194;139077;-68
2021/09/26 14:13:32;;;;;;;23.40;17.00;;;;;;;22.50;59.85;99380.84;235653;1195;139480;-66
2021/09/26 14:18:35;;;;;;;12.50;8.50;;;;;;;22.39;59.79;99384.00;236033;1195;138855;-65
2021/09/26 14:23:40;;;;;;;7.90;6.10;;;;;;;22.24;59.71;99382.83;236113;1195;139096;-61
2021/09/26 14:28:43;;;;;;;;;;;;;;;22.11;59.94;99382.88;235811;1195;138501;-64
2021/09/26 14:33:48;;;;;;;12.40;8.60;;;;;;;21.97;59.98;99384.02;235631;1187;125437;-63
2021/09/26 14:38:52;;;;;;;11.40;7.30;;;;;;;21.89;60.08;99380.37;235928;1195;138819;-60
2021/09/26 14:43:56;;;;;;;6.90;5.70;;;;;;;21.83;60.24;99375.02;235768;1195;138563;-64
2021/09/26 14:49:00;;;;;;;6.80;5.80;;;;;;;21.80;60.36;99379.83;235791;1196;138511;-63
2021/09/26 14:54:04;;;;;;;7.50;5.70;;;;;;;21.74;60.50;99376.41;235563;1195;138581;-64
2021/09/26 14:59:07;;;;;;;156.50;105.60;;;;;;;21.72;60.47;99369.82;235676;1196;139034;-65
2021/09/26 15:04:12;;;;;;;12.50;9.10;;;;;;;21.74;60.66;99367.84;235799;1189;141401;-64
2021/09/26 15:09:15;;;;;;;31.30;20.70;;;;;;;21.72;60.67;99369.66;236110;1195;138401;-61
2021/09/26 15:14:18;;;;;;;12.50;8.40;;;;;;;21.69;60.76;99367.02;236226;1195;139016;-60
2021/09/26 15:19:21;;;;;;;14.30;7.90;;;;;;;21.65;60.71;99368.52;236192;1189;138821;-61
2021/09/26 15:24:25;;;;;;;9.50;7.40;;;;;;;21.60;60.88;99363.81;235909;1195;139076;-64
2021/09/26 15:29:28;;;;;;;7.20;6.30;;;;;;;21.55;60.88;99355.50;235950;1195;138816;-63
2021/09/26 15:34:31;;;;;;;8.80;5.80;;;;;;;21.48;61.09;99347.16;235905;1195;138955;-64
2021/09/26 15:39:35;;;;;;;16.90;10.40;;;;;;;21.42;61.15;99347.76;236056;1195;138641;-63
2021/09/26 15:44:38;;;;;;;16.00;10.10;;;;;;;21.37;61.26;99347.58;236071;1195;138950;-61
2021/09/26 15:49:42;;;;;;;14.20;11.10;;;;;;;21.34;61.28;99348.97;235989;1195;139624;-70
2021/09/26 15:54:45;;;;;;;8.60;6.00;;;;;;;21.33;61.53;99343.86;235823;1195;139066;-62
2021/09/26 15:59:48;;;;;;;8.00;5.60;;;;;;;21.30;61.60;99345.98;236106;1195;138970;-64
2021/09/26 16:04:51;;;;;;;8.50;7.60;;;;;;;21.22;61.66;99345.49;236057;1195;138881;-61
2021/09/26 16:09:55;;;;;;;8.20;6.20;;;;;;;21.15;61.72;99352.27;235980;1194;138826;-66
2021/09/26 16:14:58;;;;;;;43.90;31.90;;;;;;;21.07;61.72;99356.89;235879;1188;139136;-62
2021/09/26 16:20:03;;;;;;;27.30;16.40;;;;;;;21.01;61.91;99356.63;236044;1195;139519;-62
2021/09/26 16:25:07;;;;;;;;;;;;;;;20.96;62.15;99351.14;235940;1195;139449;-61
2021/09/26 16:30:11;;;;;;;13.90;7.70;;;;;;;20.96;62.42;99353.70;235814;1195;125442;-59
2021/09/26 16:35:18;;;;;;;14.30;7.60;;;;;;;20.99;62.53;99354.96;235732;1196;139016;-63
2021/09/26 16:40:21;;;;;;;13.30;8.90;;;;;;;20.99;62.66;99358.61;236187;1195;141301;-62
2021/09/26 16:45:28;;;;;;;12.00;7.10;;;;;;;21.00;62.78;99356.34;236217;1195;138778;-65
2021/09/26 16:50:34;;;;;;;10.80;6.50;;;;;;;21.02;62.80;99361.73;235769;1195;138675;-62
2021/09/26 16:55:37;;;;;;;7.40;5.50;;;;;;;21.04;62.87;99364.27;235626;1196;138645;-60
2021/09/26 17:00:40;;;;;;;7.00;5.80;;;;;;;21.00;62.79;99369.46;236029;1195;138543;-59
2021/09/26 17:05:44;;;;;;;7.40;5.10;;;;;;;20.94;62.77;99369.95;235983;1195;138853;-59
2021/09/26 17:10:47;;;;;;;6.80;4.70;;;;;;;20.87;62.91;99365.58;235873;1195;141179;-58
2021/09/26 17:15:50;;;;;;;54.80;43.80;;;;;;;20.85;62.91;99373.39;235576;1196;138982;-64
2021/09/26 17:20:54;;;;;;;8.30;6.30;;;;;;;20.76;62.75;99368.77;236208;1195;139389;-61
2021/09/26 17:25:57;;;;;;;8.10;5.50;;;;;;;20.61;62.42;99372.69;236011;1195;138439;-61
2021/09/26 17:31:01;;;;;;;9.40;6.90;;;;;;;20.41;62.39;99375.33;235722;1195;250627;-63
2021/09/26 17:36:07;;;;;;;9.80;6.10;;;;;;;20.22;62.52;99379.66;235482;1195;138828;-61
2021/09/26 17:41:11;;;;;;;9.30;7.20;;;;;;;20.04;62.78;99376.02;235905;1195;138541;-62
2021/09/26 17:46:19;;;;;;;8.20;6.70;;;;;;;19.86;62.87;99376.26;235879;1195;138560;-61
2021/09/26 17:51:27;;;;;;;10.80;7.30;;;;;;;19.72;63.16;99377.64;235686;1195;138348;-60
2021/09/26 17:56:32;;;;;;;10.20;7.10;;;;;;;19.65;63.39;99384.27;235698;1196;139346;-61
2021/09/26 18:01:35;;;;;;;10.30;8.40;;;;;;;19.59;63.55;99384.08;235861;1195;139394;-60
2021/09/26 18:06:38;;;;;;;83.90;73.70;;;;;;;19.50;63.72;99382.85;236089;1195;138879;-60
2021/09/26 18:11:43;;;;;;;38.30;28.00;;;;;;;19.50;64.36;99389.95;235951;1195;139584;-60
2021/09/26 18:16:46;;;;;;;14.00;11.40;;;;;;;19.52;64.38;99389.57;236426;1194;138876;-60
2021/09/26 18:21:50;;;;;;;16.20;10.10;;;;;;;19.42;64.26;99384.71;236157;1195;139468;-61
2021/09/26 18:26:53;;;;;;;12.80;9.90;;;;;;;19.34;64.32;99386.77;236033;1195;139541;-60
2021/09/26 18:31:56;;;;;;;15.00;11.50;;;;;;;19.31;64.49;99392.96;236035;1195;139496;-63
2021/09/26 18:36:59;;;;;;;14.90;11.60;;;;;;;19.29;64.65;99400.20;236079;1195;139739;-59
2021/09/26 18:42:03;;;;;;;14.00;12.00;;;;;;;19.24;64.77;99410.50;236152;1195;139025;-60
2021/09/26 18:47:08;;;;;;;15.00;11.90;;;;;;;19.15;64.76;99415.98;236379;1194;139525;-62
2021/09/26 18:52:11;;;;;;;15.50;11.60;;;;;;;19.06;64.94;99416.45;236374;1195;139235;-59
2021/09/26 18:57:14;;;;;;;15.00;12.20;;;;;;;19.00;65.13;99417.08;236267;1194;140328;-60
2021/09/26 19:02:17;;;;;;;18.80;13.00;;;;;;;18.95;65.24;99419.11;235919;1195;139752;-60
2021/09/26 19:07:21;;;;;;;17.40;13.50;;;;;;;18.92;65.37;99420.81;236296;1195;138686;-59
2021/09/26 19:12:24;;;;;;;16.60;14.20;;;;;;;18.86;65.52;99419.01;236415;1194;138705;-62
2021/09/26 19:17:27;;;;;;;20.10;15.10;;;;;;;18.78;65.55;99426.23;236218;1195;140110;-61
2021/09/26 19:22:30;;;;;;;17.30;13.80;;;;;;;18.69;65.71;99430.23;236334;1195;139016;-61
2021/09/26 19:27:33;;;;;;;19.30;13.10;;;;;;;18.62;65.77;99424.73;236271;1194;139954;-59
2021/09/26 19:32:40;;;;;;;19.90;14.70;;;;;;;18.59;66.03;99422.89;236038;1195;139340;-60
2021/09/26 19:37:43;;;;;;;20.80;16.70;;;;;;;18.56;66.22;99422.38;236135;1195;138791;-58
2021/09/26 19:42:47;;;;;;;21.00;17.60;;;;;;;18.54;66.32;99418.04;236183;1195;139465;-57
2021/09/26 19:47:50;;;;;;;20.00;17.30;;;;;;;18.49;66.39;99414.42;236400;1195;139500;-58
2021/09/26 19:52:53;;;;;;;21.60;16.20;;;;;;;18.40;66.48;99413.16;236200;1194;138614;-57
2021/09/26 19:57:58;;;;;;;20.20;15.80;;;;;;;18.36;66.56;99411.04;236217;1194;139636;-58
2021/09/26 20:03:01;;;;;;;22.90;17.00;;;;;;;18.35;66.71;99413.48;236008;1195;139625;-56
2021/09/26 20:08:06;;;;;;;22.90;19.40;;;;;;;18.34;66.93;99414.67;235806;1196;140338;-61
2021/09/26 20:13:14;;;;;;;23.70;18.50;;;;;;;18.33;67.09;99411.50;236075;1194;140355;-60
2021/09/26 20:18:25;;;;;;;26.30;19.00;;;;;;;18.29;66.92;99409.85;236225;1195;139288;-60
2021/09/26 20:23:32;;;;;;;21.40;17.40;;;;;;;18.21;67.08;99414.34;235841;1194;139544;-61
2021/09/26 20:28:35;;;;;;;20.80;16.20;;;;;;;18.14;67.12;99414.57;236382;1194;139594;-63
2021/09/26 20:33:40;;;;;;;23.30;18.20;;;;;;;18.08;67.09;99420.20;236300;1195;139454;-61
2021/09/26 20:38:43;;;;;;;24.90;17.70;;;;;;;18.04;67.45;99425.35;235976;1195;138904;-62
2021/09/26 20:43:46;;;;;;;21.40;18.30;;;;;;;18.03;67.41;99422.36;236134;1195;139547;-64
2021/09/26 20:48:50;;;;;;;23.50;19.10;;;;;;;17.96;67.44;99425.84;236317;1194;139025;-66
2021/09/26 20:53:53;;;;;;;27.10;16.50;;;;;;;17.89;67.62;99431.66;235638;1196;140368;-60
2021/09/26 20:58:56;;;;;;;20.60;16.40;;;;;;;17.86;67.71;99435.73;235601;1196;139358;-64
2021/09/26 21:03:59;;;;;;;25.50;18.00;;;;;;;17.83;67.64;99433.44;236094;1196;141563;-59
2021/09/26 21:09:03;;;;;;;21.60;18.00;;;;;;;17.78;67.78;99425.41;236180;1195;139930;-61
2021/09/26 21:14:06;;;;;;;23.00;18.00;;;;;;;17.77;67.88;99428.20;236130;1194;139164;-61
2021/09/26 21:19:09;;;;;;;19.40;15.90;;;;;;;17.73;67.92;99435.33;235858;1196;139310;-60
2021/09/26 21:24:12;;;;;;;22.30;16.80;;;;;;;17.70;67.99;99440.99;235980;1195;139453;-59
2021/09/26 21:29:15;;;;;;;22.60;18.20;;;;;;;17.68;68.00;99432.67;236160;1195;139696;-60
2021/09/26 21:34:18;;;;;;;22.60;18.60;;;;;;;17.67;68.08;99427.40;236148;1194;138813;-62
2021/09/26 21:39:21;;;;;;;23.70;19.00;;;;;;;17.66;68.16;99425.36;235899;1196;139217;-61
2021/09/26 21:44:24;;;;;;;20.60;16.50;;;;;;;17.64;68.29;99420.55;236136;1195;139195;-60
2021/09/26 21:49:27;;;;;;;23.00;17.60;;;;;;;17.61;68.28;99422.34;236243;1195;139605;-62
2021/09/26 21:54:31;;;;;;;22.50;17.80;;;;;;;17.63;68.51;99420.79;236027;1195;138838;-59
2021/09/26 21:59:34;;;;;;;22.00;18.70;;;;;;;17.63;68.44;99414.16;235830;1196;139963;-59
2021/09/26 22:04:37;;;;;;;26.40;18.50;;;;;;;17.61;68.47;99407.69;235023;1192;138821;-59
2021/09/26 22:09:42;;;;;;;20.60;17.00;;;;;;;17.53;68.39;99408.90;234656;1196;138399;-60
2021/09/26 22:14:46;;;;;;;22.10;17.80;;;;;;;17.49;68.54;99411.16;234113;1195;139644;-63
2021/09/26 22:19:50;;;;;;;26.30;18.50;;;;;;;17.50;68.86;99405.53;234452;1195;140329;-62
2021/09/26 22:24:53;;;;;;;25.80;20.30;;;;;;;17.48;68.83;99400.69;234598;1195;139129;-61
2021/09/26 22:29:58;;;;;;;25.60;20.50;;;;;;;17.44;68.75;99396.23;234804;1195;139363;-65
2021/09/26 22:35:06;;;;;;;26.70;18.00;;;;;;;17.38;68.84;99395.99;234667;1196;138882;-62
2021/09/26 22:40:11;;;;;;;23.40;16.90;;;;;;;17.31;68.88;99388.13;234291;1196;139409;-62
2021/09/26 22:45:17;;;;;;;22.10;17.60;;;;;;;17.28;69.01;99379.48;235649;1195;139254;-61
2021/09/26 22:50:24;;;;;;;22.60;18.40;;;;;;;17.27;69.12;99371.23;236086;1195;138787;-65
2021/09/26 22:55:32;;;;;;;23.60;19.30;;;;;;;17.27;69.37;99375.17;235753;1195;138475;-61
2021/09/26 23:00:42;;;;;;;26.70;17.10;;;;;;;17.23;69.17;99374.41;235837;1195;138780;-61